Time;durP1;ratioP1;P1;durP2;ratioP2;P2;SDS_P1;SDS_P2;PMS_P1;PMS_P2;Temp;Humidity;BMP_temperature;BMP_pressure;BME280_temperature;BME280_humidity;BME280_pressure;Samples;Min_cycle;Max_cycle;Signal;HPM_P1;HPM_P2
2023/05/04 00:00:28;;;;;;;13.00;5.53;;;;;;;;;;5032225;28;20404;-73
2023/05/04 00:02:54;;;;;;;13.77;6.13;;;;;;;;;;5032444;28;20046;-73
2023/05/04 00:05:20;;;;;;;10.77;5.95;;;;;;;;;;5014742;28;20049;-73
2023/05/04 00:07:46;;;;;;;11.32;6.03;;;;;;;;;;5014676;28;20045;-72
2023/05/04 00:10:12;;;;;;;11.27;5.88;;;;;;;;;;5032029;28;20049;-73
2023/05/04 00:12:38;;;;;;;9.63;5.35;;;;;;;;;;5032729;28;20054;-74
2023/05/04 00:15:05;;;;;;;13.13;5.88;;;;;;;;;;5032286;28;20084;-72
2023/05/04 00:17:31;;;;;;;12.35;5.78;;;;;;;;;;5032305;28;20049;-72
2023/05/04 00:19:57;;;;;;;11.15;6.25;;;;;;;;;;5014317;28;20060;-72
2023/05/04 00:22:23;;;;;;;11.48;6.15;;;;;;;;;;5032481;28;20405;-72
2023/05/04 00:24:49;;;;;;;11.98;5.75;;;;;;;;;;5032267;28;20045;-72
2023/05/04 00:27:15;;;;;;;10.95;5.57;;;;;;;;;;5014516;28;20103;-73
2023/05/04 00:29:41;;;;;;;8.60;5.13;;;;;;;;;;5031961;28;20045;-73
2023/05/04 00:32:09;;;;;;;9.85;5.72;;;;;;;;;;5030812;28;20119;-73
2023/05/04 00:34:35;;;;;;;11.18;5.50;;;;;;;;;;5031685;28;20041;-73
2023/05/04 00:37:01;;;;;;;11.35;5.35;;;;;;;;;;5032381;28;20049;-72
2023/05/04 00:39:28;;;;;;;9.25;5.18;;;;;;;;;;5033494;28;20460;-73
2023/05/04 00:41:54;;;;;;;9.57;5.15;;;;;;;;;;5035705;28;20052;-73
2023/05/04 00:44:22;;;;;;;9.13;6.00;;;;;;;;;;5017879;28;20445;-73
2023/05/04 00:46:49;;;;;;;9.85;5.45;;;;;;;;;;5035745;28;20401;-73
2023/05/04 00:49:15;;;;;;;11.00;5.63;;;;;;;;;;5035296;28;20037;-73
2023/05/04 00:51:41;;;;;;;11.20;5.65;;;;;;;;;;5035699;28;20049;-73
2023/05/04 00:54:07;;;;;;;10.38;5.68;;;;;;;;;;5035617;28;20067;-73
2023/05/04 00:56:37;;;;;;;11.70;5.70;;;;;;;;;;5033151;28;20510;-73
2023/05/04 00:59:03;;;;;;;11.18;5.90;;;;;;;;;;5034011;28;20061;-73
2023/05/04 01:01:30;;;;;;;13.73;5.75;;;;;;;;;;5033625;28;20049;-73
2023/05/04 01:03:56;;;;;;;11.77;5.40;;;;;;;;;;5035165;28;20045;-73
2023/05/04 01:06:22;;;;;;;11.55;5.63;;;;;;;;;;5035092;28;20163;-73
2023/05/04 01:09:02;;;;;;;10.43;6.40;;;;;;;;;;5035506;28;20049;-73
2023/05/04 01:11:55;;;;;;;13.18;5.97;;;;;;;;;;5038260;28;20084;-73
2023/05/04 01:14:21;;;;;;;12.13;7.18;;;;;;;;;;5034585;28;20057;-73
2023/05/04 01:16:48;;;;;;;8.80;5.95;;;;;;;;;;5017404;28;20046;-73
2023/05/04 01:19:14;;;;;;;12.48;6.95;;;;;;;;;;5035093;28;20042;-73
2023/05/04 01:21:40;;;;;;;12.63;6.53;;;;;;;;;;5034977;28;20496;-73
2023/05/04 01:24:06;;;;;;;15.52;6.50;;;;;;;;;;5034426;28;20472;-72
2023/05/04 01:26:37;;;;;;;12.68;6.45;;;;;;;;;;5033187;28;20057;-74
2023/05/04 01:29:03;;;;;;;11.57;6.05;;;;;;;;;;5034750;28;20084;-73
2023/05/04 01:31:29;;;;;;;11.50;6.30;;;;;;;;;;5034691;28;20076;-73
2023/05/04 01:33:55;;;;;;;13.85;6.75;;;;;;;;;;5034998;28;20052;-72
2023/05/04 01:36:21;;;;;;;10.07;6.25;;;;;;;;;;5034957;28;20394;-72
2023/05/04 01:38:48;;;;;;;15.00;6.28;;;;;;;;;;5033388;28;20563;-73
2023/05/04 01:41:14;;;;;;;13.98;6.53;;;;;;;;;;5034421;28;20421;-73
2023/05/04 01:43:40;;;;;;;12.40;6.10;;;;;;;;;;5034481;28;20056;-73
2023/05/04 01:46:06;;;;;;;11.90;6.30;;;;;;;;;;5016743;28;20048;-73
2023/05/04 01:48:32;;;;;;;11.13;6.18;;;;;;;;;;5016916;28;20046;-73
2023/05/04 01:50:58;;;;;;;11.77;6.25;;;;;;;;;;5032430;28;20045;-73
2023/05/04 01:53:25;;;;;;;9.43;5.63;;;;;;;;;;5016563;28;20112;-73
2023/05/04 01:55:51;;;;;;;11.95;5.97;;;;;;;;;;5016723;28;20421;-73
2023/05/04 01:58:18;;;;;;;10.57;5.72;;;;;;;;;;5034306;28;20049;-73
2023/05/04 02:00:44;;;;;;;10.45;5.97;;;;;;;;;;4999768;28;20520;-73
2023/05/04 02:03:10;;;;;;;9.38;5.85;;;;;;;;;;5034130;28;20037;-73
2023/05/04 02:05:36;;;;;;;10.93;5.75;;;;;;;;;;5034567;28;20067;-73
2023/05/04 02:08:02;;;;;;;11.50;5.57;;;;;;;;;;5034260;28;20129;-73
2023/05/04 02:10:28;;;;;;;11.75;5.85;;;;;;;;;;5033992;28;20103;-74
2023/05/04 02:12:54;;;;;;;8.52;5.50;;;;;;;;;;5016276;28;20141;-74
2023/05/04 02:15:21;;;;;;;10.32;6.13;;;;;;;;;;5016236;28;20049;-73
2023/05/04 02:17:47;;;;;;;10.93;5.55;;;;;;;;;;5034137;28;20066;-73
2023/05/04 02:20:13;;;;;;;10.10;5.85;;;;;;;;;;5033596;28;20447;-73
2023/05/04 02:22:40;;;;;;;11.23;5.80;;;;;;;;;;5034032;28;20188;-73
2023/05/04 02:25:06;;;;;;;12.50;6.45;;;;;;;;;;5034016;28;20098;-73
2023/05/04 02:27:32;;;;;;;13.60;6.35;;;;;;;;;;5016072;28;20050;-73
2023/05/04 02:29:59;;;;;;;10.80;6.65;;;;;;;;;;5015551;28;20167;-73
2023/05/04 02:32:25;;;;;;;11.18;6.70;;;;;;;;;;5033270;28;20052;-73
2023/05/04 02:34:52;;;;;;;14.30;6.00;;;;;;;;;;5031466;28;20045;-74
2023/05/04 02:37:18;;;;;;;10.23;6.20;;;;;;;;;;5033815;28;20077;-73
2023/05/04 02:39:45;;;;;;;12.63;6.60;;;;;;;;;;5033405;28;20115;-73
2023/05/04 02:42:11;;;;;;;10.13;6.57;;;;;;;;;;5015735;28;20049;-73
2023/05/04 02:44:37;;;;;;;13.70;6.75;;;;;;;;;;5031971;28;20045;-73
2023/05/04 02:47:04;;;;;;;13.68;6.32;;;;;;;;;;5013834;28;20088;-73
2023/05/04 02:49:30;;;;;;;14.40;7.43;;;;;;;;;;5013072;28;20057;-73
2023/05/04 02:51:56;;;;;;;13.30;6.78;;;;;;;;;;5032602;28;20041;-73
2023/05/04 02:54:22;;;;;;;13.68;6.97;;;;;;;;;;5015165;28;20045;-73
2023/05/04 02:56:49;;;;;;;13.90;7.10;;;;;;;;;;5015509;28;20045;-74
2023/05/04 02:59:15;;;;;;;15.05;7.32;;;;;;;;;;5031795;28;20405;-73
2023/05/04 03:01:41;;;;;;;14.38;7.25;;;;;;;;;;5032855;28;20075;-73
2023/05/04 03:04:07;;;;;;;13.00;7.43;;;;;;;;;;5030887;28;20102;-74
2023/05/04 03:06:33;;;;;;;16.05;7.82;;;;;;;;;;5031641;28;20045;-73
2023/05/04 03:08:59;;;;;;;13.90;6.82;;;;;;;;;;5031395;28;20060;-73
2023/05/04 03:11:25;;;;;;;14.52;7.53;;;;;;;;;;5015143;28;20050;-73
2023/05/04 03:13:51;;;;;;;14.07;7.60;;;;;;;;;;5032892;28;20045;-73
2023/05/04 03:16:17;;;;;;;12.82;7.32;;;;;;;;;;5031547;28;20053;-73
2023/05/04 03:18:43;;;;;;;11.80;7.57;;;;;;;;;;5031985;28;20048;-73
2023/05/04 03:21:09;;;;;;;12.50;7.95;;;;;;;;;;5033176;28;20037;-73
2023/05/04 03:23:35;;;;;;;14.50;8.32;;;;;;;;;;5031589;28;20045;-73
2023/05/04 03:26:01;;;;;;;13.65;8.10;;;;;;;;;;5031561;28;20073;-74
2023/05/04 03:28:27;;;;;;;16.10;8.02;;;;;;;;;;5014746;28;20132;-74
2023/05/04 03:30:53;;;;;;;13.27;7.43;;;;;;;;;;5014875;28;20570;-73
2023/05/04 03:33:19;;;;;;;11.50;7.00;;;;;;;;;;5031598;28;20371;-73
2023/05/04 03:35:45;;;;;;;11.90;7.53;;;;;;;;;;5031500;28;20041;-73
2023/05/04 03:38:11;;;;;;;14.07;7.45;;;;;;;;;;5032514;28;20051;-73
2023/05/04 03:40:38;;;;;;;13.07;7.88;;;;;;;;;;5032423;28;20053;-73
2023/05/04 03:43:04;;;;;;;14.77;7.93;;;;;;;;;;5031114;28;20543;-72
2023/05/04 03:45:30;;;;;;;16.25;8.35;;;;;;;;;;5015012;28;20045;-73
2023/05/04 03:47:56;;;;;;;15.82;8.23;;;;;;;;;;5031360;28;20105;-73
2023/05/04 03:50:22;;;;;;;15.23;8.10;;;;;;;;;;5032472;28;20045;-73
2023/05/04 03:52:48;;;;;;;16.23;8.05;;;;;;;;;;5032844;28;20347;-74
2023/05/04 03:55:14;;;;;;;13.13;8.05;;;;;;;;;;5031087;28;20049;-73
2023/05/04 03:57:41;;;;;;;13.25;8.38;;;;;;;;;;5032364;28;20038;-73
2023/05/04 04:00:07;;;;;;;16.45;8.15;;;;;;;;;;5032057;28;20231;-72
2023/05/04 04:02:34;;;;;;;15.73;8.15;;;;;;;;;;5030983;28;20489;-73
2023/05/04 04:05:00;;;;;;;14.57;7.03;;;;;;;;;;5032373;28;20049;-73
2023/05/04 04:07:26;;;;;;;14.98;7.88;;;;;;;;;;5032391;28;20128;-73
2023/05/04 04:09:52;;;;;;;13.82;8.02;;;;;;;;;;5015650;28;20049;-72
2023/05/04 04:12:19;;;;;;;14.57;8.32;;;;;;;;;;5018054;28;20129;-72
2023/05/04 04:14:46;;;;;;;13.35;7.32;;;;;;;;;;5033780;28;20095;-73
2023/05/04 04:17:12;;;;;;;11.68;7.05;;;;;;;;;;5018337;28;20056;-73
2023/05/04 04:19:38;;;;;;;12.38;7.80;;;;;;;;;;5035916;28;20049;-73
2023/05/04 04:22:04;;;;;;;13.35;7.55;;;;;;;;;;5018104;28;20043;-73
2023/05/04 04:24:30;;;;;;;14.50;7.82;;;;;;;;;;5034378;28;20477;-73
2023/05/04 04:26:56;;;;;;;13.73;7.88;;;;;;;;;;5016977;28;20045;-72
2023/05/04 04:29:22;;;;;;;14.13;7.78;;;;;;;;;;5035655;28;20049;-73
2023/05/04 04:31:48;;;;;;;14.32;7.82;;;;;;;;;;5036019;28;20452;-71
2023/05/04 04:34:14;;;;;;;15.43;8.65;;;;;;;;;;5035777;28;20046;-72
2023/05/04 04:36:40;;;;;;;12.43;7.75;;;;;;;;;;5036057;28;20038;-73
2023/05/04 04:39:06;;;;;;;15.95;8.10;;;;;;;;;;5018075;28;20405;-73
2023/05/04 04:41:32;;;;;;;13.50;7.90;;;;;;;;;;5035584;28;20055;-72
2023/05/04 04:43:59;;;;;;;13.73;7.50;;;;;;;;;;5017880;28;20132;-73
2023/05/04 04:46:24;;;;;;;14.05;7.82;;;;;;;;;;5035771;28;20140;-72
2023/05/04 04:48:52;;;;;;;14.45;8.23;;;;;;;;;;5001309;28;20045;-72
2023/05/04 04:51:18;;;;;;;12.82;7.78;;;;;;;;;;5018036;28;20056;-72
2023/05/04 04:53:44;;;;;;;17.83;8.38;;;;;;;;;;5035123;28;20030;-72
2023/05/04 04:56:10;;;;;;;13.32;7.20;;;;;;;;;;5034354;28;20056;-72
2023/05/04 04:58:36;;;;;;;15.45;8.10;;;;;;;;;;5035223;28;20113;-72
2023/05/04 05:01:03;;;;;;;14.05;7.65;;;;;;;;;;5017696;28;20050;-72
2023/05/04 05:03:29;;;;;;;14.30;7.53;;;;;;;;;;5017434;28;20041;-72
2023/05/04 05:05:55;;;;;;;11.73;7.28;;;;;;;;;;5035448;28;20041;-72
2023/05/04 05:08:21;;;;;;;14.77;7.60;;;;;;;;;;5035288;28;20045;-72
2023/05/04 05:10:47;;;;;;;13.75;7.75;;;;;;;;;;5035009;28;20053;-72
2023/05/04 05:13:13;;;;;;;12.43;7.68;;;;;;;;;;5033755;28;20053;-72
2023/05/04 05:15:40;;;;;;;15.80;7.53;;;;;;;;;;5035069;28;20120;-72
2023/05/04 05:18:06;;;;;;;12.30;7.65;;;;;;;;;;5034655;28;20045;-72
2023/05/04 05:20:33;;;;;;;16.05;7.88;;;;;;;;;;5033640;28;20050;-72
2023/05/04 05:22:59;;;;;;;13.18;7.40;;;;;;;;;;5016855;28;20052;-73
2023/05/04 05:25:25;;;;;;;14.95;7.50;;;;;;;;;;5016504;28;20406;-73
2023/05/04 05:27:52;;;;;;;15.95;7.80;;;;;;;;;;5034567;28;20045;-73
2023/05/04 05:30:18;;;;;;;13.35;7.55;;;;;;;;;;5033281;28;20460;-73
2023/05/04 05:32:45;;;;;;;14.98;7.38;;;;;;;;;;5034850;28;20060;-73
2023/05/04 05:35:11;;;;;;;16.02;7.45;;;;;;;;;;5034743;28;20049;-72
2023/05/04 05:37:37;;;;;;;14.10;8.07;;;;;;;;;;5034782;28;20059;-73
2023/05/04 05:40:06;;;;;;;16.17;8.35;;;;;;;;;;5034594;28;20095;-73
2023/05/04 05:42:32;;;;;;;16.52;7.85;;;;;;;;;;5034458;28;20061;-72
2023/05/04 05:45:00;;;;;;;15.00;7.68;;;;;;;;;;5034372;28;20054;-73
2023/05/04 05:47:26;;;;;;;17.30;8.30;;;;;;;;;;5034402;28;20053;-72
2023/05/04 05:49:53;;;;;;;14.45;7.45;;;;;;;;;;5032966;28;20042;-72
2023/05/04 05:52:19;;;;;;;16.88;7.55;;;;;;;;;;5034335;28;20543;-73
2023/05/04 05:54:45;;;;;;;16.05;7.43;;;;;;;;;;5034089;28;20405;-74
2023/05/04 05:57:11;;;;;;;14.95;7.68;;;;;;;;;;5034466;28;20075;-73
2023/05/04 05:59:37;;;;;;;12.80;7.28;;;;;;;;;;5033814;28;20084;-72
2023/05/04 06:02:04;;;;;;;13.77;8.02;;;;;;;;;;5032931;28;20059;-73
2023/05/04 06:04:30;;;;;;;19.98;8.15;;;;;;;;;;5033109;28;20497;-73
2023/05/04 06:06:56;;;;;;;14.90;7.32;;;;;;;;;;5016541;28;20142;-73
2023/05/04 06:09:22;;;;;;;17.02;7.78;;;;;;;;;;5034071;28;20042;-73
2023/05/04 06:11:48;;;;;;;13.55;7.28;;;;;;;;;;5034060;28;20045;-73
2023/05/04 06:14:14;;;;;;;15.80;7.40;;;;;;;;;;5033979;28;20056;-73
2023/05/04 06:16:40;;;;;;;12.65;7.35;;;;;;;;;;5031974;28;20037;-73
2023/05/04 06:19:07;;;;;;;14.35;7.63;;;;;;;;;;5015667;28;20049;-73
2023/05/04 06:21:32;;;;;;;13.18;7.45;;;;;;;;;;5015903;28;20121;-73
2023/05/04 06:23:59;;;;;;;14.48;7.13;;;;;;;;;;5032631;28;20132;-73
2023/05/04 06:26:24;;;;;;;14.30;7.35;;;;;;;;;;5033732;28;20450;-72
2023/05/04 06:28:51;;;;;;;13.85;7.22;;;;;;;;;;5033795;28;20120;-73
2023/05/04 06:31:17;;;;;;;12.40;6.53;;;;;;;;;;5032024;28;20091;-73
2023/05/04 06:33:43;;;;;;;16.73;7.68;;;;;;;;;;5033775;28;20042;-73
2023/05/04 06:36:09;;;;;;;13.13;6.88;;;;;;;;;;5033648;28;20128;-73
2023/05/04 06:38:35;;;;;;;15.30;7.70;;;;;;;;;;5032629;28;20045;-73
2023/05/04 06:41:01;;;;;;;14.13;6.80;;;;;;;;;;5031987;28;20045;-73
2023/05/04 06:43:27;;;;;;;18.27;7.60;;;;;;;;;;5015620;28;20049;-73
2023/05/04 06:45:53;;;;;;;10.65;7.03;;;;;;;;;;5033280;28;20052;-72
2023/05/04 06:48:19;;;;;;;12.55;6.80;;;;;;;;;;5030999;28;20053;-73
2023/05/04 06:50:46;;;;;;;14.60;7.38;;;;;;;;;;5033397;28;20045;-73
2023/05/04 06:53:12;;;;;;;14.20;7.22;;;;;;;;;;5033207;28;20052;-72
2023/05/04 06:55:38;;;;;;;14.70;7.20;;;;;;;;;;5015419;28;20057;-73
2023/05/04 06:58:04;;;;;;;14.55;6.70;;;;;;;;;;5015051;28;20042;-73
2023/05/04 07:00:30;;;;;;;15.93;6.65;;;;;;;;;;4998454;28;20068;-72
2023/05/04 07:02:57;;;;;;;12.48;6.20;;;;;;;;;;5033159;28;20057;-72
2023/05/04 07:05:23;;;;;;;11.70;6.15;;;;;;;;;;5033249;28;20045;-72
2023/05/04 07:07:49;;;;;;;16.20;6.45;;;;;;;;;;5036256;28;20045;-71
2023/05/04 07:10:16;;;;;;;20.00;6.53;;;;;;;;;;5034472;28;20080;-72
2023/05/04 07:12:42;;;;;;;13.43;6.55;;;;;;;;;;5033156;28;20054;-74
2023/05/04 07:15:09;;;;;;;10.90;5.95;;;;;;;;;;5015338;28;20057;-73
2023/05/04 07:17:36;;;;;;;12.63;6.65;;;;;;;;;;5015354;28;20045;-71
2023/05/04 07:20:03;;;;;;;9.98;6.15;;;;;;;;;;5014756;28;20048;-74
2023/05/04 07:22:30;;;;;;;13.05;6.28;;;;;;;;;;5032553;28;20489;-73
2023/05/04 07:24:57;;;;;;;12.88;5.78;;;;;;;;;;5031855;28;20463;-72
2023/05/04 07:27:23;;;;;;;12.68;5.93;;;;;;;;;;4998636;28;20084;-73
2023/05/04 07:29:52;;;;;;;12.50;6.35;;;;;;;;;;5031208;28;20187;-73
2023/05/04 07:32:18;;;;;;;14.27;6.22;;;;;;;;;;5030953;28;20382;-73
2023/05/04 07:34:45;;;;;;;9.73;5.90;;;;;;;;;;5014236;28;20049;-73
2023/05/04 07:37:11;;;;;;;12.50;6.32;;;;;;;;;;5032375;28;20049;-73
2023/05/04 07:39:37;;;;;;;11.35;6.57;;;;;;;;;;5031242;28;20580;-74
2023/05/04 07:42:04;;;;;;;9.30;6.03;;;;;;;;;;5032584;28;20489;-73
2023/05/04 07:44:30;;;;;;;11.70;6.20;;;;;;;;;;5032690;28;20095;-72
2023/05/04 07:46:59;;;;;;;12.80;6.57;;;;;;;;;;5031065;28;20041;-73
2023/05/04 07:49:25;;;;;;;10.23;5.95;;;;;;;;;;5033558;28;20132;-73
2023/05/04 07:51:51;;;;;;;13.55;5.78;;;;;;;;;;5036974;28;20042;-73
2023/05/04 07:54:17;;;;;;;12.32;5.75;;;;;;;;;;5018573;28;20092;-73
2023/05/04 07:56:43;;;;;;;11.55;6.30;;;;;;;;;;5036812;28;20486;-74
2023/05/04 07:59:09;;;;;;;12.70;6.20;;;;;;;;;;5018498;28;20429;-73
2023/05/04 08:01:35;;;;;;;12.38;6.50;;;;;;;;;;5034682;28;20111;-74
2023/05/04 08:04:02;;;;;;;11.63;5.85;;;;;;;;;;5035607;28;20116;-73
2023/05/04 08:06:28;;;;;;;10.98;6.20;;;;;;;;;;5036514;28;20103;-74
2023/05/04 08:08:54;;;;;;;12.68;6.38;;;;;;;;;;5035160;28;20064;-73
2023/05/04 08:11:20;;;;;;;9.90;5.65;;;;;;;;;;5018357;28;20041;-73
2023/05/04 08:13:49;;;;;;;12.20;6.50;;;;;;;;;;5036341;28;20042;-73
2023/05/04 08:16:15;;;;;;;10.85;6.20;;;;;;;;;;5035714;28;20053;-73
2023/05/04 08:18:42;;;;;;;10.57;6.25;;;;;;;;;;5035790;28;20131;-73
2023/05/04 08:21:08;;;;;;;10.43;5.82;;;;;;;;;;5035963;28;20056;-73
2023/05/04 08:23:34;;;;;;;9.23;5.75;;;;;;;;;;5035880;28;20485;-73
2023/05/04 08:26:03;;;;;;;9.15;6.22;;;;;;;;;;5035158;28;20053;-73
2023/05/04 08:28:30;;;;;;;13.82;6.47;;;;;;;;;;5034484;28;20454;-72
2023/05/04 08:30:56;;;;;;;13.00;5.93;;;;;;;;;;5034077;28;20041;-73
2023/05/04 08:33:22;;;;;;;12.65;5.90;;;;;;;;;;5034346;28;20099;-73
2023/05/04 08:35:49;;;;;;;13.75;6.47;;;;;;;;;;5036112;28;20107;-73
2023/05/04 08:38:15;;;;;;;11.55;6.43;;;;;;;;;;5035734;28;20133;-74
2023/05/04 08:40:42;;;;;;;10.63;6.43;;;;;;;;;;5034377;28;20045;-73
2023/05/04 08:43:08;;;;;;;12.65;6.10;;;;;;;;;;5035315;28;20049;-73
2023/05/04 08:45:40;;;;;;;11.38;6.10;;;;;;;;;;5034258;28;20066;-73
2023/05/04 08:48:07;;;;;;;11.80;6.47;;;;;;;;;;5035197;28;20045;-74
2023/05/04 08:50:33;;;;;;;16.75;6.65;;;;;;;;;;5035271;28;20060;-74
2023/05/04 08:53:01;;;;;;;12.13;6.20;;;;;;;;;;5035469;28;20048;-74
2023/05/04 08:55:28;;;;;;;12.77;6.05;;;;;;;;;;5034023;28;20049;-73
2023/05/04 08:57:54;;;;;;;11.20;6.43;;;;;;;;;;5035577;28;20045;-74
2023/05/04 09:00:21;;;;;;;13.48;5.60;;;;;;;;;;5017297;28;20084;-75
2023/05/04 09:02:48;;;;;;;11.70;5.47;;;;;;;;;;5033759;28;20049;-73
2023/05/04 09:05:14;;;;;;;12.48;5.60;;;;;;;;;;5033875;28;20398;-74
2023/05/04 09:07:40;;;;;;;10.45;5.68;;;;;;;;;;5035287;28;20103;-73
2023/05/04 09:10:07;;;;;;;11.35;5.40;;;;;;;;;;5033523;28;20056;-73
2023/05/04 09:12:33;;;;;;;9.57;5.50;;;;;;;;;;5035050;28;20057;-73
2023/05/04 09:15:01;;;;;;;12.50;5.45;;;;;;;;;;5033814;28;20049;-73
2023/05/04 09:17:28;;;;;;;13.40;5.80;;;;;;;;;;5033789;28;20054;-73
2023/05/04 09:20:01;;;;;;;10.98;5.05;;;;;;;;;;5035072;28;20459;-73
2023/05/04 09:22:28;;;;;;;12.95;5.78;;;;;;;;;;5034977;28;20045;-73
2023/05/04 09:25:04;;;;;;;11.93;5.00;;;;;;;;;;5017140;28;20057;-73
2023/05/04 09:27:30;;;;;;;8.30;4.90;;;;;;;;;;5034883;28;20486;-75
2023/05/04 09:29:56;;;;;;;14.13;5.00;;;;;;;;;;5033324;28;20053;-74
2023/05/04 09:32:22;;;;;;;7.18;4.57;;;;;;;;;;5034598;28;20098;-74
2023/05/04 09:34:49;;;;;;;11.80;4.80;;;;;;;;;;5034500;28;20056;-74
2023/05/04 09:37:15;;;;;;;11.27;4.65;;;;;;;;;;5032891;28;20053;-74
2023/05/04 09:40:00;;;;;;;14.27;5.00;;;;;;;;;;5032598;28;20081;-74
2023/05/04 09:42:27;;;;;;;12.10;4.68;;;;;;;;;;5033167;28;20041;-73
2023/05/04 09:45:02;;;;;;;11.23;4.63;;;;;;;;;;5034512;28;20046;-74
2023/05/04 09:47:35;;;;;;;11.02;5.10;;;;;;;;;;5016671;28;20095;-73
2023/05/04 09:50:32;;;;;;;12.38;4.90;;;;;;;;;;5034406;28;20085;-74
2023/05/04 09:52:58;;;;;;;;;;;;;;;;;;5022208;28;20053;-74
2023/05/04 09:55:24;;;;;;;12.63;4.93;;;;;;;;;;5016016;28;19928;-74
2023/05/04 09:57:50;;;;;;;12.88;4.60;;;;;;;;;;5032645;28;20049;-74
2023/05/04 10:00:17;;;;;;;9.85;4.30;;;;;;;;;;5033278;28;20528;-75
2023/05/04 10:02:45;;;;;;;9.48;4.68;;;;;;;;;;5034301;28;20131;-75
2023/05/04 10:05:13;;;;;;;11.93;4.30;;;;;;;;;;5016000;28;20041;-75
2023/05/04 10:07:39;;;;;;;9.65;4.40;;;;;;;;;;5033936;28;20045;-73
2023/05/04 10:10:06;;;;;;;9.63;4.28;;;;;;;;;;5038517;28;20448;-73
2023/05/04 10:12:32;;;;;;;7.50;3.72;;;;;;;;;;5035568;28;20045;-74
2023/05/04 10:14:58;;;;;;;7.38;3.42;;;;;;;;;;5033226;28;20482;-74
2023/05/04 10:17:34;;;;;;;9.18;4.05;;;;;;;;;;5029954;28;20057;-73
2023/05/04 10:20:15;;;;;;;7.70;3.88;;;;;;;;;;4998985;28;20421;-74
2023/05/04 10:22:59;;;;;;;7.60;3.92;;;;;;;;;;5033897;28;20053;-74
2023/05/04 10:25:34;;;;;;;5.57;3.20;;;;;;;;;;5033668;28;20328;-74
2023/05/04 10:28:06;;;;;;;8.95;3.22;;;;;;;;;;5033788;28;20084;-74
2023/05/04 10:30:32;;;;;;;8.85;3.85;;;;;;;;;;5033304;28;20119;-74
2023/05/04 10:33:00;;;;;;;6.63;3.50;;;;;;;;;;5031990;28;20045;-74
2023/05/04 10:35:27;;;;;;;7.85;3.63;;;;;;;;;;5033703;28;20053;-74
2023/05/04 10:37:53;;;;;;;6.88;3.65;;;;;;;;;;5033224;28;20505;-74
2023/05/04 10:40:40;;;;;;;8.43;3.60;;;;;;;;;;5033381;28;20505;-75
2023/05/04 10:43:07;;;;;;;8.07;3.88;;;;;;;;;;5032226;28;20084;-73
2023/05/04 10:45:37;;;;;;;10.05;4.05;;;;;;;;;;5033264;28;20367;-73
2023/05/04 10:48:03;;;;;;;10.45;3.80;;;;;;;;;;5033167;28;20371;-73
2023/05/04 10:50:51;;;;;;;7.45;3.70;;;;;;;;;;5015351;28;20053;-74
2023/05/04 10:53:17;;;;;;;8.02;3.63;;;;;;;;;;5033052;28;20076;-75
2023/05/04 10:55:44;;;;;;;8.60;3.80;;;;;;;;;;5033189;28;20045;-74
2023/05/04 10:58:13;;;;;;;11.02;3.90;;;;;;;;;;5032780;28;20111;-73
2023/05/04 11:00:40;;;;;;;9.73;3.75;;;;;;;;;;5032811;28;20061;-73
2023/05/04 11:03:07;;;;;;;10.23;3.70;;;;;;;;;;5033026;28;20128;-74
2023/05/04 11:05:46;;;;;;;7.63;3.78;;;;;;;;;;5033282;28;20405;-74
2023/05/04 11:08:18;;;;;;;6.70;3.83;;;;;;;;;;5032766;28;20052;-74
2023/05/04 11:10:48;;;;;;;9.00;3.85;;;;;;;;;;5031471;28;20402;-74
2023/05/04 11:13:15;;;;;;;9.05;3.40;;;;;;;;;;5032943;28;20041;-74
2023/05/04 11:15:48;;;;;;;7.90;3.80;;;;;;;;;;5015585;28;20436;-74
2023/05/04 11:18:14;;;;;;;8.90;3.83;;;;;;;;;;5031269;28;20049;-74
2023/05/04 11:20:41;;;;;;;8.98;3.65;;;;;;;;;;5032573;28;20037;-73
2023/05/04 11:23:09;;;;;;;9.98;3.95;;;;;;;;;;5032466;28;20068;-73
2023/05/04 11:25:36;;;;;;;6.70;3.70;;;;;;;;;;5031365;28;20053;-73
2023/05/04 11:28:02;;;;;;;12.02;3.70;;;;;;;;;;5032723;28;20053;-74
2023/05/04 11:30:35;;;;;;;9.85;3.65;;;;;;;;;;5031621;28;20477;-74
2023/05/04 11:33:03;;;;;;;7.85;3.78;;;;;;;;;;5032841;28;20053;-74
2023/05/04 11:35:29;;;;;;;7.97;3.90;;;;;;;;;;5031849;28;20048;-73
2023/05/04 11:37:56;;;;;;;8.13;3.53;;;;;;;;;;5030849;28;20049;-74
2023/05/04 11:40:23;;;;;;;6.90;3.50;;;;;;;;;;5014645;28;20494;-74
2023/05/04 11:42:49;;;;;;;7.35;3.22;;;;;;;;;;5031614;28;20053;-74
2023/05/04 11:45:20;;;;;;;5.57;3.50;;;;;;;;;;5031461;28;20398;-75
2023/05/04 11:47:46;;;;;;;8.65;3.45;;;;;;;;;;5032421;28;20048;-75
2023/05/04 11:50:15;;;;;;;8.85;3.42;;;;;;;;;;5032263;28;20049;-75
2023/05/04 11:52:42;;;;;;;10.93;3.90;;;;;;;;;;5032585;28;20041;-75
2023/05/04 11:55:08;;;;;;;9.18;3.75;;;;;;;;;;5032132;28;20053;-74
2023/05/04 11:57:36;;;;;;;8.57;3.47;;;;;;;;;;5032625;28;20044;-74
2023/05/04 12:00:06;;;;;;;7.50;3.15;;;;;;;;;;5027502;28;20538;-75
2023/05/04 12:02:32;;;;;;;9.07;3.35;;;;;;;;;;5012674;28;20041;-74
2023/05/04 12:04:58;;;;;;;8.73;3.60;;;;;;;;;;5011644;28;20065;-74
2023/05/04 12:07:25;;;;;;;5.95;3.08;;;;;;;;;;5011901;28;20038;-74
2023/05/04 12:09:51;;;;;;;7.75;3.55;;;;;;;;;;5010114;28;20160;-74
2023/05/04 12:12:19;;;;;;;11.23;3.50;;;;;;;;;;5012686;28;20049;-74
2023/05/04 12:14:49;;;;;;;8.70;3.97;;;;;;;;;;5012767;28;20081;-75
2023/05/04 12:17:15;;;;;;;11.70;3.38;;;;;;;;;;5012722;28;20435;-74
2023/05/04 12:19:54;;;;;;;7.72;3.58;;;;;;;;;;5012269;28;20133;-74
2023/05/04 12:22:31;;;;;;;7.47;3.53;;;;;;;;;;5012071;28;20434;-74
2023/05/04 12:24:57;;;;;;;6.78;3.30;;;;;;;;;;5011574;28;20403;-74
2023/05/04 12:27:27;;;;;;;7.28;3.65;;;;;;;;;;5012804;28;20048;-74
2023/05/04 12:29:53;;;;;;;9.68;4.03;;;;;;;;;;5012629;28;20495;-74
2023/05/04 12:32:20;;;;;;;9.55;3.83;;;;;;;;;;5012376;28;20046;-74
2023/05/04 12:34:46;;;;;;;8.27;3.70;;;;;;;;;;5011397;28;20056;-73
2023/05/04 12:37:12;;;;;;;11.82;4.38;;;;;;;;;;5016086;28;20141;-74
2023/05/04 12:39:38;;;;;;;9.90;4.47;;;;;;;;;;5016116;28;20054;-74
2023/05/04 12:42:05;;;;;;;8.75;4.03;;;;;;;;;;5016106;28;20052;-74
2023/05/04 12:44:31;;;;;;;8.05;4.30;;;;;;;;;;5014391;28;20068;-74
2023/05/04 12:46:57;;;;;;;9.95;4.10;;;;;;;;;;5014236;28;20134;-74
2023/05/04 12:49:23;;;;;;;7.07;4.03;;;;;;;;;;5015419;28;20567;-73
2023/05/04 12:51:50;;;;;;;7.63;3.83;;;;;;;;;;5015540;28;20371;-73
2023/05/04 12:54:16;;;;;;;9.40;4.63;;;;;;;;;;4997744;28;20065;-73
2023/05/04 12:56:43;;;;;;;7.95;4.38;;;;;;;;;;5015505;28;20376;-73
2023/05/04 12:59:09;;;;;;;7.57;4.25;;;;;;;;;;5021324;28;20132;-73
2023/05/04 13:01:35;;;;;;;7.10;3.60;;;;;;;;;;5017804;28;20509;-73
2023/05/04 13:04:01;;;;;;;8.20;4.30;;;;;;;;;;5034868;28;20128;-73
2023/05/04 13:06:28;;;;;;;10.45;4.30;;;;;;;;;;5033624;28;20050;-73
2023/05/04 13:08:54;;;;;;;8.05;4.25;;;;;;;;;;5017319;28;20045;-73
2023/05/04 13:11:20;;;;;;;8.55;4.07;;;;;;;;;;5034777;28;20091;-73
2023/05/04 13:13:46;;;;;;;8.85;4.28;;;;;;;;;;5034427;28;20407;-73
2023/05/04 13:16:13;;;;;;;9.98;4.40;;;;;;;;;;5036324;28;20045;-72
2023/05/04 13:18:39;;;;;;;10.02;4.22;;;;;;;;;;5040225;28;20045;-73
2023/05/04 13:21:05;;;;;;;7.95;4.20;;;;;;;;;;5036755;28;20042;-73
2023/05/04 13:23:31;;;;;;;7.82;4.20;;;;;;;;;;5017371;28;20497;-73
2023/05/04 13:25:57;;;;;;;7.85;3.90;;;;;;;;;;5035101;28;20048;-73
2023/05/04 13:28:23;;;;;;;8.18;4.20;;;;;;;;;;5034753;28;20045;-73
2023/05/04 13:30:49;;;;;;;8.07;4.30;;;;;;;;;;5034980;28;20391;-74
2023/05/04 13:33:15;;;;;;;8.23;4.32;;;;;;;;;;5016780;28;20042;-73
2023/05/04 13:35:41;;;;;;;6.78;4.00;;;;;;;;;;5017144;28;20052;-73
2023/05/04 13:38:08;;;;;;;6.80;3.90;;;;;;;;;;5034459;28;20049;-73
2023/05/04 13:40:34;;;;;;;7.80;4.00;;;;;;;;;;5016883;28;20053;-73
2023/05/04 13:43:00;;;;;;;8.93;3.60;;;;;;;;;;5034890;28;20095;-74
2023/05/04 13:45:26;;;;;;;9.70;3.90;;;;;;;;;;5025330;28;20053;-73
2023/05/04 13:47:52;;;;;;;10.50;4.32;;;;;;;;;;5039217;28;20050;-73
2023/05/04 13:50:18;;;;;;;7.32;3.97;;;;;;;;;;5031765;28;20046;-73
2023/05/04 13:52:44;;;;;;;9.15;3.92;;;;;;;;;;5032377;28;20442;-73
2023/05/04 13:55:11;;;;;;;9.65;4.35;;;;;;;;;;5016100;28;20080;-73
2023/05/04 13:57:36;;;;;;;5.88;3.70;;;;;;;;;;5032372;28;20045;-72
2023/05/04 14:00:05;;;;;;;7.60;4.13;;;;;;;;;;5032994;28;20099;-73
2023/05/04 14:02:31;;;;;;;8.48;3.92;;;;;;;;;;5033983;28;20049;-72
2023/05/04 14:04:57;;;;;;;9.32;4.10;;;;;;;;;;5032431;28;20099;-73
2023/05/04 14:07:23;;;;;;;7.90;3.80;;;;;;;;;;5032079;28;20433;-73
2023/05/04 14:09:50;;;;;;;8.05;4.10;;;;;;;;;;5016052;28;20103;-73
2023/05/04 14:12:18;;;;;;;8.18;3.97;;;;;;;;;;5033113;28;20132;-72
2023/05/04 14:14:44;;;;;;;6.65;4.03;;;;;;;;;;5033836;28;20042;-73
2023/05/04 14:17:10;;;;;;;7.88;4.22;;;;;;;;;;5034073;28;20057;-74
2023/05/04 14:19:36;;;;;;;13.38;3.97;;;;;;;;;;5031563;28;20472;-73
2023/05/04 14:22:02;;;;;;;6.63;3.30;;;;;;;;;;5033743;28;20084;-73
2023/05/04 14:24:28;;;;;;;8.00;3.75;;;;;;;;;;5033707;28;20049;-73
2023/05/04 14:26:54;;;;;;;9.88;4.03;;;;;;;;;;5016002;28;20115;-72
2023/05/04 14:29:20;;;;;;;6.43;4.00;;;;;;;;;;5033660;28;20081;-73
2023/05/04 14:31:46;;;;;;;7.50;4.15;;;;;;;;;;5033688;28;20050;-72